Time;durP1;ratioP1;P1;durP2;ratioP2;P2;SDS_P1;SDS_P2;PMS_P1;PMS_P2;Temp;Humidity;BMP_temperature;BMP_pressure;BME280_temperature;BME280_humidity;BME280_pressure;Samples;Min_cycle;Max_cycle;Signal;HPM_P1;HPM_P2
2022/08/12 00:43:46;;;;;;;7.53;4.13;;;20.50;86.90;;;;;;5037289;28;20431;-75
2022/08/12 00:46:31;;;;;;;4.53;4.00;;;20.40;87.00;;;;;;5037410;28;20446;-76
2022/08/12 00:49:02;;;;;;;4.57;4.13;;;20.40;87.20;;;;;;5037385;28;20422;-76
2022/08/12 00:54:13;;;;;;;4.00;3.60;;;20.30;87.40;;;;;;5037308;28;20438;-76
2022/08/12 00:56:42;;;;;;;4.83;3.60;;;20.20;87.40;;;;;;5036888;28;20457;-76
2022/08/12 00:59:11;;;;;;;6.97;4.10;;;20.20;87.70;;;;;;5035674;28;20457;-75
2022/08/12 01:01:44;;;;;;;4.40;4.00;;;20.20;87.80;;;;;;5036845;28;20526;-76
2022/08/12 01:13:01;;;;;;;6.77;4.17;;;20.00;88.30;;;;;;5037465;28;20855;-75
2022/08/12 01:15:50;;;;;;;7.23;4.20;;;20.00;88.50;;;;;;5036845;28;20470;-75
2022/08/12 01:18:20;;;;;;;4.97;4.00;;;19.90;88.70;;;;;;5036976;28;20518;-76
2022/08/12 01:21:02;;;;;;;4.20;3.77;;;19.90;88.80;;;;;;5037015;28;20899;-76
2022/08/12 01:23:48;;;;;;;4.00;3.53;;;19.90;89.10;;;;;;5036774;28;20496;-76
2022/08/12 01:26:22;;;;;;;4.20;3.80;;;19.80;89.10;;;;;;5035927;28;20474;-76
2022/08/12 01:28:55;;;;;;;6.03;3.40;;;19.80;89.20;;;;;;5035652;28;21003;-76
2022/08/12 01:31:28;;;;;;;5.50;3.67;;;19.70;89.30;;;;;;5041308;28;20435;-76
2022/08/12 01:34:02;;;;;;;5.17;3.50;;;19.70;89.50;;;;;;5041637;28;20446;-76
2022/08/12 01:36:39;;;;;;;4.10;3.60;;;19.70;89.70;;;;;;5042925;28;20469;-76
2022/08/12 01:39:08;;;;;;;4.67;4.10;;;19.70;89.80;;;;;;5043600;28;20411;-76
2022/08/12 01:41:44;;;;;;;6.80;3.53;;;19.60;89.90;;;;;;5043000;28;20447;-76
2022/08/12 01:44:21;;;;;;;5.90;4.03;;;19.60;90.00;;;;;;5042129;28;20490;-76
2022/08/12 01:46:58;;;;;;;3.47;3.00;;;19.60;90.10;;;;;;5041062;28;20473;-76
2022/08/12 01:49:49;;;;;;;5.47;4.20;;;19.50;90.20;;;;;;5042755;28;20502;-76
2022/08/12 01:52:28;;;;;;;4.97;4.17;;;19.50;90.20;;;;;;5043046;28;20445;-76
2022/08/12 01:54:59;;;;;;;6.87;4.10;;;19.50;90.30;;;;;;5042335;28;20505;-76
2022/08/12 01:57:38;;;;;;;5.03;3.70;;;19.40;90.30;;;;;;5041464;28;20496;-77
2022/08/12 02:00:30;;;;;;;5.23;3.50;;;19.40;90.40;;;;;;5042203;28;20443;-76
2022/08/12 02:03:25;;;;;;;4.60;3.87;;;19.40;90.40;;;;;;5040616;28;20466;-76
2022/08/12 02:11:43;;;;;;;5.13;3.43;;;19.20;90.50;;;;;;5041635;28;20926;-77
2022/08/12 02:14:50;;;;;;;5.63;3.93;;;19.20;90.60;;;;;;5042285;28;20502;-76
2022/08/12 02:17:26;;;;;;;4.07;3.30;;;19.20;90.70;;;;;;5000818;28;20450;-76
2022/08/12 02:20:20;;;;;;;4.90;3.90;;;19.20;90.70;;;;;;5040351;28;20475;-76
2022/08/12 02:22:51;;;;;;;6.30;3.73;;;19.10;90.80;;;;;;5038918;28;20439;-76
2022/08/12 02:25:33;;;;;;;4.60;4.10;;;19.10;91.00;;;;;;5037895;28;20493;-76
2022/08/12 02:28:02;;;;;;;4.20;3.80;;;19.00;90.90;;;;;;5039628;28;20442;-76
2022/08/12 02:30:37;;;;;;;3.50;3.17;;;19.00;90.90;;;;;;5036882;28;20790;-75
2022/08/12 02:33:11;;;;;;;4.57;3.73;;;19.00;91.00;;;;;;5038809;28;20893;-76
2022/08/12 02:35:39;;;;;;;4.57;3.80;;;19.00;91.10;;;;;;5048190;28;20501;-76
2022/08/12 02:38:11;;;;;;;4.97;4.07;;;18.90;91.10;;;;;;5048255;28;20557;-75
2022/08/12 02:40:41;;;;;;;4.47;3.77;;;18.90;91.20;;;;;;5044195;28;20483;-76
2022/08/12 02:43:19;;;;;;;4.77;4.03;;;18.90;91.30;;;;;;5040882;28;20449;-76
2022/08/12 02:45:53;;;;;;;4.63;4.23;;;18.90;91.40;;;;;;5036051;28;20565;-76
2022/08/12 02:48:27;;;;;;;5.30;4.40;;;18.80;91.40;;;;;;5034546;28;20439;-76
2022/08/12 02:50:58;;;;;;;5.00;3.90;;;18.80;91.50;;;;;;5035146;28;20420;-75
2022/08/12 02:53:27;;;;;;;5.93;4.57;;;18.70;91.50;;;;;;5033928;28;20435;-76
2022/08/12 02:55:58;;;;;;;4.40;4.00;;;18.70;91.60;;;;;;5033648;28;20467;-76
2022/08/12 02:58:27;;;;;;;4.63;3.90;;;18.70;91.70;;;;;;5034991;28;20435;-76
2022/08/12 03:01:08;;;;;;;3.93;3.63;;;18.70;91.70;;;;;;5034962;28;20549;-75
2022/08/12 03:03:38;;;;;;;4.80;4.30;;;18.70;91.80;;;;;;5034628;28;20443;-76
2022/08/12 03:06:08;;;;;;;7.60;4.90;;;18.60;91.80;;;;;;5034647;28;20470;-76
2022/08/12 03:08:42;;;;;;;4.23;3.83;;;18.60;91.80;;;;;;5033313;28;20435;-75
2022/08/12 03:11:16;;;;;;;4.23;3.83;;;18.50;91.80;;;;;;5034702;28;20442;-75
2022/08/12 03:13:50;;;;;;;4.10;3.70;;;18.50;91.90;;;;;;5033081;28;20445;-76
2022/08/12 03:16:20;;;;;;;6.43;4.13;;;18.50;91.90;;;;;;5034401;28;20459;-76
2022/08/12 03:18:50;;;;;;;5.93;3.80;;;18.50;92.00;;;;;;5035004;28;20441;-77
2022/08/12 03:21:19;;;;;;;4.87;4.30;;;18.40;92.00;;;;;;5035652;28;20999;-76
2022/08/12 03:24:08;;;;;;;4.70;4.17;;;18.40;92.10;;;;;;5038470;28;20465;-76
2022/08/12 03:26:37;;;;;;;5.20;4.27;;;18.40;92.20;;;;;;5035920;28;20510;-75
2022/08/12 03:29:07;;;;;;;5.67;4.77;;;18.40;92.20;;;;;;5032925;28;20886;-75
2022/08/12 03:31:36;;;;;;;6.50;4.50;;;18.40;92.30;;;;;;5034049;28;20513;-75
2022/08/12 03:34:07;;;;;;;5.00;4.30;;;18.30;92.40;;;;;;5034327;28;20443;-75
2022/08/12 03:36:37;;;;;;;4.70;4.30;;;18.30;92.50;;;;;;5034231;28;20458;-76
2022/08/12 03:39:26;;;;;;;4.53;4.07;;;18.30;92.60;;;;;;5034514;28;20415;-76
2022/08/12 03:42:16;;;;;;;5.20;3.90;;;18.20;92.60;;;;;;5034100;28;20443;-76
2022/08/12 04:01:51;;;;;;;7.50;4.23;;;18.00;93.00;;;;;;5031534;28;20443;-76
2022/08/12 04:04:22;;;;;;;5.10;4.60;;;18.00;93.10;;;;;;5033625;28;20423;-75
2022/08/12 04:06:51;;;;;;;5.07;4.57;;;18.00;93.20;;;;;;5034068;28;20482;-76
2022/08/12 04:09:21;;;;;;;8.43;4.97;;;17.90;93.20;;;;;;5033575;28;20439;-75
2022/08/12 04:14:36;;;;;;;5.23;4.60;;;17.90;93.40;;;;;;5033910;28;20419;-76
2022/08/12 04:17:05;;;;;;;6.70;4.77;;;17.90;93.50;;;;;;5032123;28;20447;-76
2022/08/12 04:19:34;;;;;;;4.60;4.20;;;17.90;93.50;;;;;;5033814;28;20445;-76
2022/08/12 04:22:03;;;;;;;7.53;5.00;;;17.90;93.60;;;;;;5033327;28;20485;-76
2022/08/12 04:24:34;;;;;;;4.80;4.40;;;17.80;93.70;;;;;;5033488;28;20454;-76
2022/08/12 04:27:07;;;;;;;7.27;4.70;;;17.80;93.80;;;;;;5033324;28;20822;-75
2022/08/12 04:29:36;;;;;;;8.83;5.03;;;17.80;93.90;;;;;;5033848;28;20904;-75
2022/08/12 04:32:24;;;;;;;5.90;4.47;;;17.80;94.00;;;;;;5033425;28;20438;-76
2022/08/12 04:34:55;;;;;;;7.33;4.70;;;17.70;94.00;;;;;;5033169;28;20451;-76
2022/08/12 04:37:23;;;;;;;7.73;5.07;;;17.70;94.10;;;;;;5033784;28;20451;-76
2022/08/12 04:39:52;;;;;;;6.23;4.50;;;17.70;94.10;;;;;;5032269;28;20497;-76
2022/08/12 04:42:22;;;;;;;6.57;4.30;;;17.70;94.20;;;;;;5033547;28;20451;-75
2022/08/12 04:44:51;;;;;;;5.67;4.50;;;17.80;94.40;;;;;;5033129;28;20450;-75
2022/08/12 04:47:20;;;;;;;7.63;5.23;;;17.80;94.50;;;;;;5031822;28;20577;-76
2022/08/12 04:49:49;;;;;;;6.63;4.73;;;17.70;94.60;;;;;;5031856;28;20975;-76
2022/08/12 04:52:19;;;;;;;5.33;4.83;;;17.70;94.70;;;;;;5033551;28;20489;-76
2022/08/12 04:54:48;;;;;;;7.00;4.87;;;17.70;94.70;;;;;;5033183;28;20443;-76
2022/08/12 04:57:16;;;;;;;5.63;5.13;;;17.70;94.80;;;;;;5031855;28;20435;-76
2022/08/12 04:59:44;;;;;;;5.30;4.73;;;17.70;95.00;;;;;;5036715;28;20534;-75
2022/08/12 05:02:17;;;;;;;5.60;5.10;;;17.80;95.10;;;;;;5033194;28;20419;-76
2022/08/12 05:04:50;;;;;;;9.37;5.80;;;17.70;95.20;;;;;;5031964;28;20495;-76
2022/08/12 05:07:22;;;;;;;9.93;6.10;;;17.80;95.40;;;;;;5033900;28;20455;-77
2022/08/12 05:09:51;;;;;;;6.00;5.37;;;17.80;95.50;;;;;;5033002;28;20447;-76
2022/08/12 05:12:34;;;;;;;6.77;6.17;;;17.80;95.60;;;;;;5031808;28;20443;-75
2022/08/12 05:15:03;;;;;;;7.17;5.30;;;17.80;95.70;;;;;;5036592;28;20454;-75
2022/08/12 05:17:52;;;;;;;6.00;5.33;;;17.80;95.80;;;;;;5035517;28;20431;-75
2022/08/12 05:20:21;;;;;;;7.20;5.50;;;17.90;95.90;;;;;;5036983;28;20829;-75
2022/08/12 05:22:51;;;;;;;6.47;5.53;;;17.90;96.00;;;;;;5035767;28;20425;-76
2022/08/12 05:25:25;;;;;;;7.50;5.10;;;17.90;96.10;;;;;;5037779;28;20959;-76
2022/08/12 05:27:53;;;;;;;6.20;5.57;;;17.90;96.20;;;;;;5036127;28;20906;-76
2022/08/12 05:30:26;;;;;;;6.53;5.93;;;18.00;96.30;;;;;;5036842;28;20419;-76
2022/08/12 05:32:55;;;;;;;5.90;5.30;;;18.00;96.40;;;;;;5036646;28;20434;-76
2022/08/12 05:35:27;;;;;;;6.30;5.67;;;18.00;96.50;;;;;;5035285;28;20463;-76
2022/08/12 05:40:40;;;;;;;6.67;5.50;;;18.10;96.70;;;;;;5036120;28;20530;-76
2022/08/12 05:43:08;;;;;;;7.03;5.50;;;18.10;96.70;;;;;;5036368;28;20539;-75
2022/08/12 05:45:36;;;;;;;9.83;5.40;;;18.10;96.80;;;;;;5036597;28;20549;-76
2022/08/12 05:48:12;;;;;;;12.00;6.50;;;18.10;97.10;;;;;;5036013;28;20455;-76
2022/08/12 05:50:40;;;;;;;6.60;5.40;;;18.20;97.00;;;;;;5036180;28;20453;-75
2022/08/12 05:53:09;;;;;;;6.77;5.07;;;18.20;97.00;;;;;;5036326;28;20442;-77
2022/08/12 05:55:39;;;;;;;6.00;4.97;;;18.30;97.10;;;;;;5035431;28;20559;-75
2022/08/12 05:58:07;;;;;;;6.33;5.50;;;18.40;97.20;;;;;;5035915;28;20431;-76
2022/08/12 06:00:36;;;;;;;7.63;5.30;;;18.50;97.20;;;;;;5036236;28;20861;-77
2022/08/12 06:03:06;;;;;;;5.63;5.13;;;18.60;97.30;;;;;;5036002;28;20446;-75
2022/08/12 06:05:36;;;;;;;6.70;5.13;;;18.80;97.30;;;;;;5034463;28;20520;-75
2022/08/12 06:08:24;;;;;;;8.57;4.63;;;19.00;97.40;;;;;;5035965;28;20458;-76
2022/08/12 06:10:55;;;;;;;6.80;5.50;;;19.30;97.50;;;;;;5036006;28;20415;-75
2022/08/12 06:13:24;;;;;;;5.53;4.63;;;19.60;97.60;;;;;;5036181;28;20423;-77
2022/08/12 06:16:14;;;;;;;5.90;4.93;;;19.80;97.50;;;;;;5035723;28;20467;-75
2022/08/12 06:18:43;;;;;;;4.93;4.40;;;20.10;97.50;;;;;;5034293;28;20538;-75
2022/08/12 06:21:12;;;;;;;7.50;4.53;;;20.40;97.60;;;;;;5035802;28;20435;-75
2022/08/12 06:23:44;;;;;;;6.47;4.80;;;20.70;97.50;;;;;;5035273;28;20463;-76
2022/08/12 06:26:14;;;;;;;6.30;5.20;;;21.00;97.50;;;;;;5034514;28;20549;-74
2022/08/12 06:28:43;;;;;;;10.80;7.33;;;21.30;97.40;;;;;;5035900;28;20481;-76
2022/08/12 06:31:15;;;;;;;8.37;7.50;;;21.60;97.40;;;;;;5035361;28;20446;-75
2022/08/12 06:33:55;;;;;;;7.10;5.10;;;21.90;97.30;;;;;;5034062;28;20467;-76
2022/08/12 06:36:43;;;;;;;6.00;4.80;;;22.20;97.20;;;;;;5035399;28;20972;-76
2022/08/12 06:39:13;;;;;;;7.10;5.73;;;22.50;96.90;;;;;;5035456;28;20887;-75
2022/08/12 06:44:49;;;;;;;4.70;4.20;;;23.00;96.30;;;;;;5033896;28;20489;-76
2022/08/12 06:47:18;;;;;;;5.00;4.47;;;23.20;96.10;;;;;;5035141;28;20463;-75
2022/08/12 06:49:48;;;;;;;6.10;4.97;;;23.40;96.20;;;;;;5035259;28;20439;-77
2022/08/12 06:52:23;;;;;;;7.53;4.60;;;23.70;95.90;;;;;;5034566;28;20439;-76
2022/08/12 06:54:54;;;;;;;5.83;4.33;;;23.90;95.80;;;;;;5035457;28;20455;-76
2022/08/12 06:57:26;;;;;;;8.50;4.87;;;24.10;95.50;;;;;;5035681;28;20881;-75
2022/08/12 07:00:20;;;;;;;7.63;6.07;;;24.30;95.20;;;;;;5033506;28;20462;-76
2022/08/12 07:03:00;;;;;;;6.17;4.77;;;24.50;94.80;;;;;;5035071;28;20434;-76
2022/08/12 07:05:48;;;;;;;6.80;4.80;;;24.70;94.60;;;;;;5035111;28;20458;-76
2022/08/12 07:08:18;;;;;;;8.80;6.60;;;24.90;94.30;;;;;;5035336;28;20471;-77
2022/08/12 07:10:52;;;;;;;15.30;8.07;;;25.00;94.10;;;;;;5035142;28;20426;-76
2022/08/12 07:13:20;;;;;;;7.90;6.40;;;25.10;93.90;;;;;;5034880;28;20458;-76
2022/08/12 07:15:49;;;;;;;6.20;4.83;;;25.30;93.60;;;;;;5034638;28;20463;-78
2022/08/12 07:18:18;;;;;;;5.47;4.43;;;25.40;93.70;;;;;;5034615;28;20447;-76
2022/08/12 07:20:48;;;;;;;8.20;4.80;;;25.50;93.20;;;;;;5034981;28;20442;-76
2022/08/12 07:23:20;;;;;;;6.43;5.07;;;25.70;93.00;;;;;;5035178;28;20439;-77
2022/08/12 07:25:50;;;;;;;4.90;4.50;;;25.80;93.00;;;;;;5034014;28;20569;-77
2022/08/12 07:28:28;;;;;;;6.37;4.40;;;26.00;92.80;;;;;;5035309;28;20493;-78
2022/08/12 07:30:57;;;;;;;4.97;4.57;;;26.10;92.60;;;;;;5034784;28;20462;-77
2022/08/12 07:33:28;;;;;;;7.00;4.47;;;26.20;92.30;;;;;;5033867;28;20455;-77
2022/08/12 07:36:01;;;;;;;7.57;4.30;;;26.30;92.10;;;;;;5034993;28;20459;-78
2022/08/12 07:38:32;;;;;;;5.37;4.30;;;26.40;91.80;;;;;;5034724;28;20427;-77
2022/08/12 07:41:06;;;;;;;5.93;4.10;;;26.50;91.90;;;;;;5033472;28;20447;-78
2022/08/12 07:43:45;;;;;;;7.40;5.03;;;26.70;91.80;;;;;;5034844;28;20442;-77
2022/08/12 07:46:15;;;;;;;9.00;5.17;;;26.80;91.40;;;;;;5034694;28;20558;-78
2022/08/12 07:48:45;;;;;;;6.57;4.67;;;26.90;91.10;;;;;;5034735;28;21082;-77
2022/08/12 07:51:13;;;;;;;6.20;4.57;;;27.00;90.70;;;;;;5035273;28;20446;-76
2022/08/12 07:53:54;;;;;;;7.37;4.60;;;27.00;90.40;;;;;;5035087;28;20878;-78
2022/08/12 07:56:31;;;;;;;4.53;4.13;;;27.00;90.20;;;;;;5034890;28;20450;-77
2022/08/12 07:59:01;;;;;;;5.57;5.03;;;27.10;90.10;;;;;;5035948;28;20509;-77
2022/08/12 08:01:31;;;;;;;5.43;4.93;;;27.20;90.00;;;;;;5035850;28;20447;-77
2022/08/12 08:06:47;;;;;;;5.70;4.80;;;27.40;89.90;;;;;;5034738;28;20454;-76
2022/08/12 08:09:18;;;;;;;6.97;4.07;;;27.50;89.50;;;;;;5035078;28;20542;-76
2022/08/12 08:14:33;;;;;;;6.73;4.47;;;27.60;88.60;;;;;;5034924;28;20427;-78
2022/08/12 08:17:05;;;;;;;4.90;4.40;;;27.80;88.30;;;;;;5035212;28;20439;-77
2022/08/12 08:19:33;;;;;;;6.40;4.57;;;27.90;88.20;;;;;;5033828;28;20984;-78
2022/08/12 08:22:22;;;;;;;5.67;4.30;;;28.00;87.60;;;;;;5033647;28;20933;-76
2022/08/12 08:25:10;;;;;;;4.67;4.27;;;28.00;87.10;;;;;;5034878;28;20474;-78
2022/08/12 08:28:01;;;;;;;5.60;4.40;;;28.10;86.80;;;;;;5033979;28;21003;-77
2022/08/12 08:30:31;;;;;;;4.60;4.00;;;28.20;86.40;;;;;;5033775;28;20439;-78
2022/08/12 08:32:59;;;;;;;7.70;4.17;;;28.30;85.80;;;;;;5034407;28;20450;-78
2022/08/12 08:35:27;;;;;;;5.30;4.30;;;28.30;85.40;;;;;;5034178;28;21018;-77
2022/08/12 08:38:16;;;;;;;4.70;4.00;;;28.30;84.70;;;;;;5035215;28;20449;-78
2022/08/12 08:44:07;;;;;;;5.03;4.53;;;28.40;84.30;;;;;;5034367;28;20947;-76
2022/08/12 08:46:36;;;;;;;5.23;4.60;;;28.50;85.10;;;;;;5033671;28;20553;-77
2022/08/12 08:49:05;;;;;;;6.33;4.70;;;28.60;84.20;;;;;;5038213;28;20465;-78
2022/08/12 08:51:34;;;;;;;5.00;4.50;;;28.60;84.00;;;;;;5037265;28;20446;-77
2022/08/12 08:54:02;;;;;;;9.20;4.70;;;28.70;83.40;;;;;;5037735;28;20450;-76
2022/08/12 08:56:30;;;;;;;5.97;4.27;;;28.70;83.10;;;;;;5038219;28;20489;-76
2022/08/12 08:58:58;;;;;;;7.40;3.97;;;28.70;82.80;;;;;;5037751;28;20960;-77
2022/08/12 09:01:29;;;;;;;4.97;4.50;;;28.80;82.60;;;;;;5037647;28;20469;-78
2022/08/12 09:04:06;;;;;;;5.20;4.20;;;28.80;82.50;;;;;;5040243;28;20439;-78
2022/08/12 09:07:01;;;;;;;4.73;4.33;;;28.90;82.60;;;;;;5038558;28;20466;-79
2022/08/12 09:09:50;;;;;;;8.57;4.10;;;29.00;82.30;;;;;;5039966;28;20462;-78
2022/08/12 09:15:23;;;;;;;7.80;4.40;;;29.10;81.50;;;;;;5041362;28;20529;-78
2022/08/12 09:18:06;;;;;;;5.90;4.73;;;29.10;80.90;;;;;;5039980;28;20456;-77
2022/08/12 09:20:54;;;;;;;6.80;5.60;;;29.20;80.00;;;;;;5041119;28;20467;-79
2022/08/12 09:23:22;;;;;;;5.33;4.33;;;29.20;79.50;;;;;;5039362;28;20435;-79
2022/08/12 09:26:10;;;;;;;6.27;4.03;;;29.10;79.10;;;;;;5039148;28;20470;-78
2022/08/12 09:28:39;;;;;;;7.20;4.50;;;29.10;78.90;;;;;;5040005;28;20516;-78
2022/08/12 09:31:07;;;;;;;5.23;4.70;;;29.10;78.70;;;;;;5040145;28;20435;-78
2022/08/12 09:33:57;;;;;;;7.53;4.30;;;29.20;78.40;;;;;;5038440;28;20534;-79
2022/08/12 09:36:46;;;;;;;5.20;4.40;;;29.20;78.20;;;;;;5038813;28;20463;-79
2022/08/12 09:39:29;;;;;;;10.50;4.70;;;29.20;78.00;;;;;;5039101;28;20443;-77
2022/08/12 09:45:22;;;;;;;5.97;5.37;;;29.30;77.20;;;;;;5038152;28;20505;-78
2022/08/12 09:48:15;;;;;;;4.97;4.50;;;29.30;76.70;;;;;;5039141;28;20431;-78
2022/08/12 09:50:51;;;;;;;11.20;5.70;;;29.30;76.50;;;;;;5038206;28;20493;-77
2022/08/12 09:53:26;;;;;;;5.70;5.03;;;29.40;76.40;;;;;;5039898;28;20427;-78
2022/08/12 09:56:10;;;;;;;5.47;4.60;;;29.40;76.10;;;;;;5039973;28;20491;-77
2022/08/12 09:58:58;;;;;;;4.67;4.00;;;29.40;75.90;;;;;;5036715;28;20439;-77
2022/08/12 10:01:29;;;;;;;5.53;4.60;;;29.50;75.90;;;;;;5038965;28;20889;-77
2022/08/12 10:04:17;;;;;;;5.27;4.03;;;29.50;75.50;;;;;;5039238;28;20800;-78
2022/08/12 10:06:48;;;;;;;5.57;4.40;;;29.60;75.70;;;;;;5039482;28;20509;-79
2022/08/12 10:09:23;;;;;;;5.77;3.93;;;29.60;75.40;;;;;;5038950;28;20493;-77
2022/08/12 10:15:00;;;;;;;5.47;4.00;;;29.70;74.60;;;;;;5038897;28;20471;-77
2022/08/12 10:17:28;;;;;;;6.53;4.43;;;29.70;74.20;;;;;;5037356;28;20478;-78
2022/08/12 10:19:57;;;;;;;5.00;4.00;;;29.80;73.60;;;;;;5039683;28;20889;-78
2022/08/12 10:22:30;;;;;;;6.10;4.53;;;29.80;73.30;;;;;;5040519;28;20489;-79
2022/08/12 10:31:02;;;;;;;7.07;4.20;;;29.90;72.20;;;;;;5039043;28;20426;-78
2022/08/12 10:33:33;;;;;;;5.70;4.23;;;29.90;71.90;;;;;;5039985;28;20812;-76
2022/08/12 10:36:22;;;;;;;5.33;4.17;;;30.00;71.50;;;;;;5036032;28;20823;-77
2022/08/12 10:39:13;;;;;;;4.63;3.80;;;30.10;71.10;;;;;;5037084;28;20984;-77
2022/08/12 10:45:00;;;;;;;4.70;3.80;;;30.10;70.20;;;;;;5037914;28;20469;-78
2022/08/12 10:47:29;;;;;;;4.93;4.43;;;30.10;70.30;;;;;;5037246;28;20451;-78
2022/08/12 10:50:21;;;;;;;7.77;5.60;;;30.20;69.90;;;;;;5038286;28;20812;-77
2022/08/12 10:53:10;;;;;;;5.43;3.53;;;30.20;69.60;;;;;;5038205;28;20455;-78
2022/08/12 10:55:47;;;;;;;5.20;3.90;;;30.30;69.50;;;;;;5038403;28;20458;-77
2022/08/12 10:58:23;;;;;;;4.10;3.70;;;30.40;69.00;;;;;;5036212;28;20435;-76
2022/08/12 11:00:59;;;;;;;8.17;3.87;;;30.40;68.20;;;;;;5036871;28;20423;-77
2022/08/12 11:03:48;;;;;;;4.47;3.20;;;30.40;67.90;;;;;;5035703;28;20439;-78
2022/08/12 11:06:37;;;;;;;4.00;3.33;;;30.50;67.80;;;;;;5035742;28;20473;-78
2022/08/12 11:09:30;;;;;;;3.97;3.30;;;30.60;68.10;;;;;;5036961;28;20450;-78
2022/08/12 11:12:19;;;;;;;3.70;3.30;;;30.70;66.40;;;;;;5036128;28;20518;-77
2022/08/12 11:15:08;;;;;;;4.10;3.00;;;30.70;65.20;;;;;;5037218;28;20470;-78
2022/08/12 11:17:48;;;;;;;4.80;3.30;;;30.70;64.30;;;;;;5035254;28;20415;-78
2022/08/12 11:20:21;;;;;;;5.57;3.07;;;30.70;63.70;;;;;;5036695;28;20451;-77
2022/08/12 11:22:57;;;;;;;3.60;2.87;;;30.70;63.40;;;;;;5036047;28;20419;-77
2022/08/12 11:25:26;;;;;;;5.53;2.63;;;30.70;62.60;;;;;;5034094;28;20478;-76
2022/08/12 11:28:16;;;;;;;4.10;2.80;;;30.80;62.20;;;;;;5036001;28;20463;-76
2022/08/12 11:31:00;;;;;;;2.73;2.53;;;30.70;61.30;;;;;;5036604;28;20458;-77
2022/08/12 11:33:28;;;;;;;3.00;2.70;;;30.70;60.90;;;;;;5034785;28;20534;-77
2022/08/12 11:36:17;;;;;;;2.53;2.30;;;30.70;60.60;;;;;;5035034;28;20478;-77
2022/08/12 11:38:49;;;;;;;4.33;2.50;;;30.70;60.40;;;;;;5035654;28;20959;-77
2022/08/12 11:41:18;;;;;;;4.33;2.70;;;30.60;60.20;;;;;;5035485;28;20451;-77
2022/08/12 11:44:00;;;;;;;6.93;2.80;;;30.70;60.10;;;;;;5035196;28;20419;-77
2022/08/12 11:46:49;;;;;;;2.93;2.63;;;30.70;60.90;;;;;;5034861;28;20550;-76
2022/08/12 11:49:22;;;;;;;3.40;2.63;;;30.80;60.50;;;;;;5035383;28;20455;-77
2022/08/12 11:52:03;;;;;;;3.20;2.50;;;30.80;60.20;;;;;;5036996;28;20421;-78
2022/08/12 11:54:53;;;;;;;3.47;2.40;;;30.90;60.10;;;;;;5035110;28;20498;-77
2022/08/12 11:57:21;;;;;;;4.40;2.80;;;31.00;59.60;;;;;;5035056;28;20458;-77
2022/08/12 12:00:12;;;;;;;2.90;2.50;;;31.00;59.30;;;;;;5033923;28;20442;-77
2022/08/12 12:03:00;;;;;;;3.67;2.50;;;31.00;58.70;;;;;;5033412;28;20453;-76
2022/08/12 12:05:31;;;;;;;5.00;2.30;;;31.00;58.60;;;;;;5035744;28;20508;-77
2022/08/12 12:08:20;;;;;;;2.97;2.77;;;31.00;58.20;;;;;;5033479;28;20474;-77
2022/08/12 12:11:08;;;;;;;6.17;2.80;;;31.00;57.90;;;;;;5034504;28;20494;-77
2022/08/12 12:13:37;;;;;;;4.77;3.17;;;31.00;58.00;;;;;;5034103;28;20438;-77
2022/08/12 12:16:26;;;;;;;3.40;3.10;;;31.00;57.90;;;;;;5033047;28;20471;-76
2022/08/12 12:18:56;;;;;;;4.00;2.60;;;31.00;57.70;;;;;;5034951;28;20435;-77
2022/08/12 12:21:25;;;;;;;3.23;2.80;;;30.90;57.30;;;;;;5033069;28;20442;-76
2022/08/12 12:24:13;;;;;;;4.20;2.90;;;30.90;57.20;;;;;;5033597;28;20461;-76
2022/08/12 12:26:48;;;;;;;4.60;2.67;;;30.90;57.30;;;;;;5032786;28;20477;-75
2022/08/12 12:29:28;;;;;;;5.33;2.40;;;30.90;57.20;;;;;;5036190;28;20417;-77
2022/08/12 12:32:18;;;;;;;3.73;3.03;;;30.90;57.10;;;;;;5034293;28;20459;-76
2022/08/12 12:34:56;;;;;;;6.27;3.10;;;31.00;57.00;;;;;;5034317;28;20820;-76
2022/08/12 12:37:55;;;;;;;3.73;3.00;;;31.00;57.20;;;;;;5033783;28;20517;-77
2022/08/12 12:40:34;;;;;;;3.70;3.00;;;31.00;57.00;;;;;;5033138;28;20812;-76
2022/08/12 12:43:07;;;;;;;3.77;2.93;;;31.00;57.00;;;;;;5034186;28;20431;-76
2022/08/12 12:45:38;;;;;;;5.23;3.20;;;31.00;56.90;;;;;;5034756;28;20554;-77
2022/08/12 12:48:09;;;;;;;5.20;2.83;;;31.00;56.70;;;;;;5033031;28;20883;-77
2022/08/12 12:50:40;;;;;;;4.50;2.80;;;31.10;56.70;;;;;;5033929;28;20827;-76
2022/08/12 12:53:20;;;;;;;3.30;2.47;;;31.10;56.80;;;;;;5034105;28;20423;-76
2022/08/12 12:56:14;;;;;;;3.60;3.27;;;31.10;56.50;;;;;;5033860;28;20473;-77
2022/08/12 12:58:43;;;;;;;3.17;2.83;;;31.10;56.30;;;;;;5033314;28;20919;-77
2022/08/12 13:01:12;;;;;;;7.00;3.37;;;31.10;56.40;;;;;;5032511;28;20471;-77
2022/08/12 13:03:59;;;;;;;5.03;2.87;;;31.10;56.10;;;;;;5033700;28;20885;-76
2022/08/12 13:06:30;;;;;;;3.80;3.00;;;31.10;56.30;;;;;;5033797;28;20529;-77
2022/08/12 13:09:01;;;;;;;6.87;2.97;;;31.10;56.30;;;;;;5033373;28;20435;-78
2022/08/12 13:11:31;;;;;;;4.10;2.83;;;31.20;56.20;;;;;;5033369;28;20494;-77
2022/08/12 13:14:09;;;;;;;3.57;3.10;;;31.20;56.00;;;;;;5033955;28;20414;-77
2022/08/12 13:16:59;;;;;;;4.27;2.80;;;31.20;55.80;;;;;;5033512;28;20434;-76
2022/08/12 13:19:29;;;;;;;3.10;2.80;;;31.30;56.00;;;;;;5033421;28;20462;-77
2022/08/12 13:24:53;;;;;;;4.23;2.60;;;31.30;55.80;;;;;;5030568;28;20462;-77
2022/08/12 13:27:28;;;;;;;4.00;2.50;;;31.30;55.40;;;;;;5032550;28;20449;-77
2022/08/12 13:30:06;;;;;;;5.33;3.07;;;31.30;55.10;;;;;;5033668;28;20534;-77
2022/08/12 13:32:40;;;;;;;8.33;3.23;;;31.20;55.10;;;;;;5033488;28;20418;-76
2022/08/12 13:35:10;;;;;;;4.17;3.00;;;31.20;55.20;;;;;;5036571;28;20468;-77
2022/08/12 13:37:59;;;;;;;4.30;3.43;;;31.20;55.10;;;;;;5036768;28;20919;-76
2022/08/12 13:40:32;;;;;;;4.63;3.33;;;31.10;55.00;;;;;;5036987;28;20451;-76
2022/08/12 13:43:01;;;;;;;5.47;3.20;;;31.10;55.00;;;;;;5035599;28;20442;-76
2022/08/12 13:45:33;;;;;;;3.40;2.60;;;31.10;55.00;;;;;;5038146;28;20454;-77
2022/08/12 13:48:03;;;;;;;4.90;2.80;;;31.20;55.70;;;;;;5035709;28;20443;-76
2022/08/12 13:50:36;;;;;;;4.77;3.83;;;31.20;55.10;;;;;;5035342;28;20884;-77
2022/08/12 13:53:08;;;;;;;3.47;2.97;;;31.20;55.10;;;;;;5036977;28;20547;-77
2022/08/12 13:55:56;;;;;;;2.87;2.67;;;31.30;55.20;;;;;;5035836;28;20520;-77
2022/08/12 13:58:28;;;;;;;3.37;3.07;;;31.30;55.00;;;;;;5036846;28;20498;-75
2022/08/12 14:01:02;;;;;;;3.93;3.03;;;31.30;54.90;;;;;;5037165;28;20431;-76
2022/08/12 14:03:31;;;;;;;6.77;2.97;;;31.30;54.70;;;;;;5035391;28;20966;-76
2022/08/12 14:06:21;;;;;;;3.57;2.67;;;31.30;54.50;;;;;;5035310;28;20477;-76
2022/08/12 14:08:57;;;;;;;5.70;3.10;;;31.30;54.60;;;;;;5036174;28;20427;-77
2022/08/12 14:11:26;;;;;;;3.53;2.83;;;31.30;54.80;;;;;;5036339;28;20470;-76
2022/08/12 14:13:59;;;;;;;4.87;2.70;;;31.40;54.90;;;;;;5036596;28;20419;-76
2022/08/12 14:16:39;;;;;;;2.90;2.40;;;31.40;54.90;;;;;;5034889;28;21070;-77
2022/08/12 14:19:18;;;;;;;3.43;2.50;;;31.50;55.00;;;;;;5036369;28;20802;-77
2022/08/12 14:21:54;;;;;;;4.30;2.87;;;31.50;55.20;;;;;;5035628;28;21017;-77
2022/08/12 14:24:33;;;;;;;7.63;2.50;;;31.60;55.10;;;;;;5036969;28;20449;-77
2022/08/12 14:27:02;;;;;;;4.73;3.10;;;31.60;54.70;;;;;;5036218;28;20792;-77
2022/08/12 14:29:40;;;;;;;6.23;3.10;;;31.60;54.40;;;;;;5035300;28;20443;-76
2022/08/12 14:32:33;;;;;;;5.13;3.20;;;31.60;54.00;;;;;;5036353;28;20459;-77
2022/08/12 14:35:07;;;;;;;7.70;3.10;;;31.50;54.20;;;;;;5036275;28;20470;-77
2022/08/12 14:37:39;;;;;;;3.47;2.97;;;31.50;54.00;;;;;;5035874;28;20525;-76
2022/08/12 14:40:27;;;;;;;3.40;3.10;;;31.50;53.60;;;;;;5034395;28;20956;-76
2022/08/12 14:42:57;;;;;;;4.20;2.93;;;31.50;53.60;;;;;;5034350;28;20466;-78
2022/08/12 14:45:25;;;;;;;4.57;3.13;;;31.50;53.90;;;;;;5034231;28;20459;-78
2022/08/12 14:48:14;;;;;;;3.20;2.77;;;31.50;53.90;;;;;;5035740;28;20428;-76
2022/08/12 14:50:43;;;;;;;5.97;2.93;;;31.60;53.80;;;;;;5035765;28;20462;-75
2022/08/12 14:53:32;;;;;;;3.97;3.10;;;31.60;53.80;;;;;;5035822;28;20785;-76
2022/08/12 14:56:22;;;;;;;5.57;3.50;;;31.60;53.60;;;;;;5033775;28;20475;-77
2022/08/12 15:02:19;;;;;;;3.30;3.00;;;31.60;53.50;;;;;;5034098;28;20446;-75
2022/08/12 15:04:57;;;;;;;3.67;3.20;;;31.60;53.40;;;;;;5035019;28;20486;-76
2022/08/12 15:07:27;;;;;;;3.20;2.90;;;31.60;53.10;;;;;;5033748;28;20541;-76
2022/08/12 15:10:12;;;;;;;11.93;3.33;;;31.60;53.20;;;;;;5035327;28;20489;-77
2022/08/12 15:12:40;;;;;;;4.33;3.03;;;31.60;53.30;;;;;;5035321;28;20470;-76
2022/08/12 15:15:09;;;;;;;5.20;3.00;;;31.60;53.40;;;;;;5034966;28;20459;-77
2022/08/12 15:17:38;;;;;;;3.00;2.70;;;31.60;53.20;;;;;;5036492;28;20664;-76
2022/08/12 15:20:08;;;;;;;4.83;3.33;;;31.60;53.10;;;;;;5036580;28;20446;-77
2022/08/12 15:22:56;;;;;;;3.20;2.90;;;31.60;52.70;;;;;;5037725;28;20523;-77
2022/08/12 15:25:26;;;;;;;5.80;3.90;;;31.60;52.40;;;;;;5033660;28;21122;-76
2022/08/12 15:27:58;;;;;;;4.20;2.97;;;31.60;52.40;;;;;;5035098;28;20901;-76